Hlavní strana
METAR-TAF:

METAR-TAF

Letiště :

Mezinárodní letiště Čcheng-tu Šuang-liou

Čcheng-tu, Čína

zeměpisná šířka: 30-40N, zeměpisná délka: 104-01E, výška: 508 m

Aktuální stav počasí

Zpráva byla vytvořena před 1 hodinou a 2 minutami, v 22:00 UTC
Bezvětří
Teplota 25°C
Vlhkost vzduchu 83%
Tlak 1003 hPa
Viditelnost 10 km a více
Polojasno ve výšce 5000 ft

METAR: ZUUU 182200Z 00000MPS 9999 SCT050 25/22 Q1003 NOSIG

Čas: 07:02 (23:02 UTC)

Předpověď počasí

Zpráva byla vytvořena před 8 hodinami a 58 minutami, v 14:04 UTC
Předpověď platná od 18 v 18 UTC do 19 v 18 UTC
Severoseverovýchodní vítr 6 kt
Viditelnost: 5000 m
Polojasno ve výšce 5000 ft
kouřmo

TAF: ZUUU 181404Z 1818/1918 03003MPS 5000 BR SCT050 TX32/1907Z TN21/1821Z

Stav a předpovědi počasí z více než 4 000 letišť (zprávy METAR a TAF).

Červené a žluté tečky na mapě představují dostupné meteorologické stanice.

Když kurzor umístíte na tečku, zobrazí se název stanice.

Pak kliknutím zobrazíte stav a předpověď počasí.

Chcete-li změnit mapu, kliknutím na zelené tlačítko se znaménkem +mapu přiblížíte, kliknutím na zelené tlačítko se znaménkem – mapu oddálíte a kliknutím na zelené šipky přejdete na sousední mapy.


METAR-TAF: